createdAt,value
2023-04-22T00:00:52.955Z,1011.98
2023-04-22T00:01:53.298Z,1011.98
2023-04-22T00:02:53.754Z,1011.98
2023-04-22T00:03:53.979Z,1011.98
2023-04-22T00:04:54.349Z,1011.95
2023-04-22T00:05:54.471Z,1011.97
2023-04-22T00:06:54.712Z,1011.95
2023-04-22T00:07:55.012Z,1011.89
2023-04-22T00:08:55.337Z,1011.87
2023-04-22T00:09:55.673Z,1011.86
2023-04-22T00:10:55.965Z,1011.84
2023-04-22T00:11:56.270Z,1011.96
2023-04-22T00:12:56.582Z,1011.91
2023-04-22T00:13:56.910Z,1011.91
2023-04-22T00:14:57.190Z,1011.92
2023-04-22T00:15:57.537Z,1011.93
2023-04-22T00:16:57.815Z,1011.92
2023-04-22T00:17:58.154Z,1011.93
2023-04-22T00:18:58.467Z,1011.92
2023-04-22T00:19:58.755Z,1011.87
2023-04-22T00:20:59.071Z,1011.92
2023-04-22T00:21:59.391Z,1011.92
2023-04-22T00:22:59.665Z,1011.88
2023-04-22T00:23:59.973Z,1011.86
2023-04-22T00:25:00.282Z,1011.84
2023-04-22T00:26:00.619Z,1011.91
2023-04-22T00:27:00.903Z,1011.93
2023-04-22T00:28:01.194Z,1011.91
2023-04-22T00:29:01.522Z,1011.97
2023-04-22T00:30:01.841Z,1012.03
2023-04-22T00:31:02.199Z,1012.02
2023-04-22T00:32:02.420Z,1011.94
2023-04-22T00:33:02.803Z,1011.92
2023-04-22T00:34:02.953Z,1011.86
2023-04-22T00:35:03.210Z,1011.82
2023-04-22T00:36:03.468Z,1011.84
2023-04-22T00:37:03.679Z,1011.82
2023-04-22T00:38:03.899Z,1011.90
2023-04-22T00:39:04.192Z,1011.85
2023-04-22T00:40:04.451Z,1011.85
2023-04-22T00:41:04.776Z,1011.78
2023-04-22T00:42:05.006Z,1011.85
2023-04-22T00:43:05.247Z,1011.89
2023-04-22T00:44:05.545Z,1011.84
2023-04-22T00:45:05.750Z,1011.85
2023-04-22T00:46:06.027Z,1011.75
2023-04-22T00:47:06.326Z,1011.78
2023-04-22T00:48:06.625Z,1011.78
2023-04-22T00:49:06.901Z,1011.75
2023-04-22T00:50:07.148Z,1011.71
2023-04-22T00:51:07.410Z,1011.70
2023-04-22T00:52:07.678Z,1011.71
2023-04-22T00:53:07.931Z,1011.72
2023-04-22T00:54:08.169Z,1011.67
2023-04-22T00:55:08.442Z,1011.63
2023-04-22T00:56:08.643Z,1011.63
2023-04-22T00:57:08.937Z,1011.59
2023-04-22T00:58:09.157Z,1011.62
2023-04-22T00:59:09.414Z,1011.63
2023-04-22T01:00:09.676Z,1011.60
2023-04-22T01:01:09.993Z,1011.59
2023-04-22T01:02:10.339Z,1011.59
2023-04-22T01:03:10.682Z,1011.62
2023-04-22T01:04:11.040Z,1011.66
2023-04-22T01:05:11.075Z,1011.71
2023-04-22T01:06:11.415Z,1011.69
2023-04-22T01:07:11.655Z,1011.67
2023-04-22T01:08:11.993Z,1011.71
2023-04-22T01:09:12.308Z,1011.73
2023-04-22T01:10:12.668Z,1011.68
2023-04-22T01:11:12.898Z,1011.68
2023-04-22T01:12:13.217Z,1011.69
2023-04-22T01:13:13.542Z,1011.67
2023-04-22T01:14:13.899Z,1011.72
2023-04-22T01:15:14.108Z,1011.64
2023-04-22T01:16:14.541Z,1011.75
2023-04-22T01:17:14.713Z,1011.66
2023-04-22T01:18:15.025Z,1011.69
2023-04-22T01:19:15.362Z,1011.67
2023-04-22T01:20:15.671Z,1011.69
2023-04-22T01:21:15.985Z,1011.67
2023-04-22T01:22:16.337Z,1011.69
2023-04-22T01:23:16.630Z,1011.63
2023-04-22T01:24:16.963Z,1011.65
2023-04-22T01:25:17.285Z,1011.67
2023-04-22T01:26:17.599Z,1011.70
2023-04-22T01:27:17.909Z,1011.58
2023-04-22T01:28:18.236Z,1011.60
2023-04-22T01:29:18.567Z,1011.62
2023-04-22T01:30:18.898Z,1011.60
2023-04-22T01:31:19.177Z,1011.59
2023-04-22T01:32:19.733Z,1011.63
2023-04-22T01:33:19.877Z,1011.56
2023-04-22T01:34:20.199Z,1011.62
2023-04-22T01:35:20.516Z,1011.58
2023-04-22T01:36:20.849Z,1011.57
2023-04-22T01:37:21.147Z,1011.61
2023-04-22T01:38:21.456Z,1011.59
2023-04-22T01:39:21.784Z,1011.61
2023-04-22T01:40:22.095Z,1011.61
2023-04-22T01:41:22.414Z,1011.51
2023-04-22T01:42:22.734Z,1011.61
2023-04-22T01:43:23.037Z,1011.56
2023-04-22T01:44:23.365Z,1011.56
2023-04-22T01:45:23.688Z,1011.55
2023-04-22T01:46:24.107Z,1011.52
2023-04-22T01:47:24.290Z,1011.52
2023-04-22T01:48:24.586Z,1011.52
2023-04-22T01:49:24.921Z,1011.53
2023-04-22T01:50:25.239Z,1011.46
2023-04-22T01:51:25.542Z,1011.45
2023-04-22T01:52:25.891Z,1011.44
2023-04-22T01:53:26.186Z,1011.44
2023-04-22T01:54:26.509Z,1011.39
2023-04-22T01:55:26.815Z,1011.42
2023-04-22T01:56:27.139Z,1011.47
2023-04-22T01:57:27.435Z,1011.43
2023-04-22T01:58:27.748Z,1011.38
2023-04-22T01:59:28.046Z,1011.36
2023-04-22T02:00:28.349Z,1011.39
2023-04-22T02:01:28.689Z,1011.34
2023-04-22T02:02:29.012Z,1011.34
2023-04-22T02:03:29.335Z,1011.41
2023-04-22T02:04:29.590Z,1011.39
2023-04-22T02:05:29.882Z,1011.39
2023-04-22T02:06:30.202Z,1011.35
2023-04-22T02:07:30.494Z,1011.33
2023-04-22T02:08:30.825Z,1011.35
2023-04-22T02:09:31.127Z,1011.34
2023-04-22T02:10:31.455Z,1011.29
2023-04-22T02:11:31.759Z,1011.29
2023-04-22T02:12:39.697Z,1011.30
2023-04-22T02:13:32.607Z,1011.26
2023-04-22T02:14:32.717Z,1011.27
2023-04-22T02:15:33.087Z,1011.29
2023-04-22T02:16:33.493Z,1011.30
2023-04-22T02:17:33.706Z,1011.21
2023-04-22T02:18:34.054Z,1011.27
2023-04-22T02:19:34.437Z,1011.22
2023-04-22T02:20:34.809Z,1011.23
2023-04-22T02:21:34.897Z,1011.24
2023-04-22T02:22:35.235Z,1011.23
2023-04-22T02:23:35.507Z,1011.16
2023-04-22T02:24:35.837Z,1011.23
2023-04-22T02:25:36.109Z,1011.19
2023-04-22T02:26:36.426Z,1011.15
2023-04-22T02:27:36.724Z,1011.18
2023-04-22T02:28:37.017Z,1011.14
2023-04-22T02:29:37.684Z,1011.16
2023-04-22T02:30:37.641Z,1011.15
2023-04-22T02:31:37.969Z,1011.14
2023-04-22T02:32:38.200Z,1011.15
2023-04-22T02:33:38.421Z,1011.09
2023-04-22T02:34:38.711Z,1011.12
2023-04-22T02:35:39.030Z,1011.03
2023-04-22T02:36:39.310Z,1011.06
2023-04-22T02:37:39.605Z,1011.04
2023-04-22T02:38:39.912Z,1011.04
2023-04-22T02:39:40.581Z,1011.06
2023-04-22T02:40:40.510Z,1011.06
2023-04-22T02:41:40.812Z,1011.04
2023-04-22T02:42:41.090Z,1011.02
2023-04-22T02:43:41.440Z,1011.02
2023-04-22T02:44:41.725Z,1011.04
2023-04-22T02:45:42.069Z,1010.98
2023-04-22T02:46:42.424Z,1011.01
2023-04-22T02:47:42.722Z,1010.89
2023-04-22T02:48:43.026Z,1010.93
2023-04-22T02:49:43.375Z,1010.95
2023-04-22T02:50:43.651Z,1011.01
2023-04-22T02:51:43.946Z,1010.92
2023-04-22T02:52:44.266Z,1010.92
2023-04-22T02:53:44.628Z,1010.85
2023-04-22T02:54:44.945Z,1010.92
2023-04-22T02:55:45.217Z,1010.94
2023-04-22T02:56:45.513Z,1010.88
2023-04-22T02:57:45.818Z,1010.89
2023-04-22T02:58:46.148Z,1010.91
2023-04-22T02:59:46.437Z,1010.88
2023-04-22T03:00:46.738Z,1010.88
2023-04-22T03:01:47.060Z,1010.83
2023-04-22T03:02:47.434Z,1010.87
2023-04-22T03:03:47.837Z,1010.85
2023-04-22T03:04:47.857Z,1010.86
2023-04-22T03:05:48.150Z,1010.91
2023-04-22T03:06:48.465Z,1010.88
2023-04-22T03:07:48.749Z,1010.82
2023-04-22T03:08:49.069Z,1010.85
2023-04-22T03:09:49.360Z,1010.85
2023-04-22T03:10:49.667Z,1010.79
2023-04-22T03:11:49.972Z,1010.79
2023-04-22T03:12:50.258Z,1010.76
2023-04-22T03:13:50.575Z,1010.79
2023-04-22T03:14:50.874Z,1010.73
2023-04-22T03:15:51.146Z,1010.77
2023-04-22T03:16:51.554Z,1010.75
2023-04-22T03:17:51.818Z,1010.76
2023-04-22T03:18:52.040Z,1010.72
2023-04-22T03:19:52.308Z,1010.74
2023-04-22T03:20:52.637Z,1010.70
2023-04-22T03:21:52.927Z,1010.69
2023-04-22T03:22:53.268Z,1010.77
2023-04-22T03:23:53.561Z,1010.73
2023-04-22T03:24:53.854Z,1010.73
2023-04-22T03:25:54.186Z,1010.73
2023-04-22T03:26:54.493Z,1010.72
2023-04-22T03:27:54.780Z,1010.75
2023-04-22T03:28:55.156Z,1010.75
2023-04-22T03:29:55.448Z,1010.74
2023-04-22T03:30:55.789Z,1010.71
2023-04-22T03:31:56.167Z,1010.67
2023-04-22T03:32:56.425Z,1010.72
2023-04-22T03:33:56.564Z,1010.68
2023-04-22T03:34:56.881Z,1010.70
2023-04-22T03:35:57.185Z,1010.70
2023-04-22T03:36:57.509Z,1010.67
2023-04-22T03:37:57.834Z,1010.68
2023-04-22T03:38:58.126Z,1010.79
2023-04-22T03:39:58.424Z,1010.73
2023-04-22T03:40:58.748Z,1010.72
2023-04-22T03:41:59.078Z,1010.65
2023-04-22T03:42:59.378Z,1010.74
2023-04-22T03:44:01.690Z,1010.69
2023-04-22T03:44:59.996Z,1010.69
2023-04-22T03:46:00.394Z,1010.72
2023-04-22T03:47:00.553Z,1010.68
2023-04-22T03:48:00.809Z,1010.69
2023-04-22T03:49:01.147Z,1010.68
2023-04-22T03:50:01.441Z,1010.70
2023-04-22T03:51:01.762Z,1010.69
2023-04-22T03:52:02.090Z,1010.75
2023-04-22T03:53:02.424Z,1010.71
2023-04-22T03:54:02.647Z,1010.71
2023-04-22T03:55:02.967Z,1010.71
2023-04-22T03:56:03.218Z,1010.73
2023-04-22T03:57:03.524Z,1010.70
2023-04-22T03:58:03.781Z,1010.75
2023-04-22T03:59:04.115Z,1010.77
2023-04-22T04:00:04.458Z,1010.74
2023-04-22T04:01:04.764Z,1010.76
2023-04-22T04:02:05.150Z,1010.73
2023-04-22T04:03:05.498Z,1010.73
2023-04-22T04:04:05.883Z,1010.67
2023-04-22T04:05:05.998Z,1010.74
2023-04-22T04:06:06.313Z,1010.75
2023-04-22T04:07:06.558Z,1010.74
2023-04-22T04:08:06.986Z,1010.72
2023-04-22T04:09:07.156Z,1010.73
2023-04-22T04:10:07.495Z,1010.77
2023-04-22T04:11:07.877Z,1010.77
2023-04-22T04:12:08.150Z,1010.75
2023-04-22T04:13:08.491Z,1010.72
2023-04-22T04:14:08.685Z,1010.79
2023-04-22T04:15:09.016Z,1010.81
2023-04-22T04:16:09.368Z,1010.79
2023-04-22T04:17:09.756Z,1010.77
2023-04-22T04:18:09.962Z,1010.82
2023-04-22T04:19:10.191Z,1010.84
2023-04-22T04:20:10.527Z,1010.82
2023-04-22T04:21:10.876Z,1010.79
2023-04-22T04:22:11.182Z,1010.79
2023-04-22T04:23:11.458Z,1010.70
2023-04-22T04:24:11.671Z,1010.72
2023-04-22T04:25:12.020Z,1010.72
2023-04-22T04:26:12.341Z,1010.80
2023-04-22T04:27:12.692Z,1010.80
2023-04-22T04:28:13.060Z,1010.81
2023-04-22T04:29:13.287Z,1010.75
2023-04-22T04:30:13.504Z,1010.85
2023-04-22T04:31:13.881Z,1010.82
2023-04-22T04:32:14.074Z,1010.79
2023-04-22T04:33:14.494Z,1010.78
2023-04-22T04:34:14.672Z,1010.79
2023-04-22T04:35:15.047Z,1010.86
2023-04-22T04:36:16.029Z,1010.81
2023-04-22T04:37:15.579Z,1010.85
2023-04-22T04:38:15.798Z,1010.82
2023-04-22T04:39:16.294Z,1010.86
2023-04-22T04:40:16.474Z,1010.87
2023-04-22T04:41:16.814Z,1010.89
2023-04-22T04:42:17.162Z,1010.85
2023-04-22T04:43:17.432Z,1010.83
2023-04-22T04:44:17.656Z,1010.80
2023-04-22T04:45:17.901Z,1010.87
2023-04-22T04:46:18.132Z,1010.86
2023-04-22T04:47:18.587Z,1010.86
2023-04-22T04:48:18.834Z,1010.86
2023-04-22T04:49:19.032Z,1010.86
2023-04-22T04:50:19.378Z,1010.82
2023-04-22T04:51:20.504Z,1010.74
2023-04-22T04:52:19.924Z,1010.83
2023-04-22T04:53:20.256Z,1010.73
2023-04-22T04:54:20.368Z,1010.79
2023-04-22T04:55:20.687Z,1010.73
2023-04-22T04:56:21.043Z,1010.73
2023-04-22T04:57:21.538Z,1010.70
2023-04-22T04:58:21.662Z,1010.68
2023-04-22T04:59:21.892Z,1010.67
2023-04-22T05:00:22.120Z,1010.63
2023-04-22T05:01:22.427Z,1010.60
2023-04-22T05:02:23.118Z,1010.65
2023-04-22T05:03:23.113Z,1010.62
2023-04-22T05:04:23.553Z,1010.66
2023-04-22T05:05:23.600Z,1010.67
2023-04-22T05:06:23.962Z,1010.65
2023-04-22T05:07:24.206Z,1010.69
2023-04-22T05:08:24.441Z,1010.65
2023-04-22T05:09:24.642Z,1010.67
2023-04-22T05:10:25.027Z,1010.67
2023-04-22T05:11:25.254Z,1010.63
2023-04-22T05:12:25.475Z,1010.60
2023-04-22T05:13:25.706Z,1010.60
2023-04-22T05:14:25.917Z,1010.69
2023-04-22T05:15:26.269Z,1010.64
2023-04-22T05:16:26.644Z,1010.69
2023-04-22T05:17:26.919Z,1010.71
2023-04-22T05:18:27.109Z,1010.70
2023-04-22T05:19:27.330Z,1010.71
2023-04-22T05:20:27.561Z,1010.65
2023-04-22T05:21:27.814Z,1010.68
2023-04-22T05:22:28.092Z,1010.61
2023-04-22T05:23:28.308Z,1010.64
2023-04-22T05:24:28.558Z,1010.61
2023-04-22T05:25:28.787Z,1010.64
2023-04-22T05:26:29.035Z,1010.60
2023-04-22T05:27:29.281Z,1010.62
2023-04-22T05:28:29.548Z,1010.59
2023-04-22T05:29:29.781Z,1010.57
2023-04-22T05:30:30.035Z,1010.51
2023-04-22T05:31:30.264Z,1010.55
2023-04-22T05:32:30.541Z,1010.48
2023-04-22T05:33:30.756Z,1010.41
2023-04-22T05:34:30.989Z,1010.43
2023-04-22T05:35:31.230Z,1010.42
2023-04-22T05:36:31.757Z,1010.48
2023-04-22T05:37:31.793Z,1010.42
2023-04-22T05:38:32.063Z,1010.48
2023-04-22T05:39:32.379Z,1010.43
2023-04-22T05:40:32.567Z,1010.42
2023-04-22T05:41:32.831Z,1010.38
2023-04-22T05:42:33.055Z,1010.44
2023-04-22T05:43:33.347Z,1010.41
2023-04-22T05:44:33.606Z,1010.43
2023-04-22T05:45:33.913Z,1010.29
2023-04-22T05:46:34.311Z,1010.32
2023-04-22T05:47:34.528Z,1010.33
2023-04-22T05:48:34.760Z,1010.28
2023-04-22T05:49:35.026Z,1010.30
2023-04-22T05:50:35.288Z,1010.24
2023-04-22T05:51:35.520Z,1010.22
2023-04-22T05:52:35.817Z,1010.26
2023-04-22T05:53:36.082Z,1010.30
2023-04-22T05:54:36.348Z,1010.24
2023-04-22T05:55:36.576Z,1010.27
2023-04-22T05:56:36.853Z,1010.21
2023-04-22T05:57:37.132Z,1010.23
2023-04-22T05:58:37.361Z,1010.30
2023-04-22T05:59:37.702Z,1010.30
2023-04-22T06:00:37.919Z,1010.27
2023-04-22T06:01:38.171Z,1010.29
2023-04-22T06:02:38.547Z,1010.32
2023-04-22T06:03:39.035Z,1010.32
2023-04-22T06:04:39.392Z,1010.29
2023-04-22T06:05:40.037Z,1010.27
2023-04-22T06:06:39.447Z,1010.22
2023-04-22T06:07:39.717Z,1010.22
2023-04-22T06:08:39.974Z,1010.21
2023-04-22T06:09:40.543Z,1010.19
2023-04-22T06:10:40.569Z,1010.15
2023-04-22T06:11:40.862Z,1010.19
2023-04-22T06:12:41.054Z,1010.22
2023-04-22T06:13:41.337Z,1010.17
2023-04-22T06:14:41.588Z,1010.22
2023-04-22T06:15:41.854Z,1010.23
2023-04-22T06:16:42.108Z,1010.14
2023-04-22T06:17:42.444Z,1010.17
2023-04-22T06:18:42.680Z,1010.15
2023-04-22T06:19:42.928Z,1010.20
2023-04-22T06:20:43.184Z,1010.19
2023-04-22T06:21:43.468Z,1010.13
2023-04-22T06:22:43.700Z,1010.12
2023-04-22T06:23:43.946Z,1010.15
2023-04-22T06:24:45.673Z,1010.13
2023-04-22T06:25:44.435Z,1010.13
2023-04-22T06:26:44.681Z,1010.14
2023-04-22T06:27:44.932Z,1010.08
2023-04-22T06:28:45.207Z,1010.09
2023-04-22T06:29:45.429Z,1010.11
2023-04-22T06:30:45.665Z,1010.09
2023-04-22T06:31:46.050Z,1010.14
2023-04-22T06:32:46.126Z,1010.17
2023-04-22T06:33:46.458Z,1010.17
2023-04-22T06:34:46.817Z,1010.09
2023-04-22T06:35:47.046Z,1010.17
2023-04-22T06:36:47.310Z,1010.16
2023-04-22T06:37:47.558Z,1010.15
2023-04-22T06:38:47.783Z,1010.16
2023-04-22T06:39:48.009Z,1010.09
2023-04-22T06:40:48.242Z,1010.12
2023-04-22T06:41:48.491Z,1010.11
2023-04-22T06:42:48.735Z,1010.16
2023-04-22T06:43:48.950Z,1010.16
2023-04-22T06:44:49.329Z,1010.19
2023-04-22T06:45:49.584Z,1010.23
2023-04-22T06:46:49.856Z,1010.23
2023-04-22T06:47:50.111Z,1010.24
2023-04-22T06:48:50.362Z,1010.21
2023-04-22T06:49:50.695Z,1010.24
2023-04-22T06:50:51.062Z,1010.26
2023-04-22T06:51:51.409Z,1010.27
2023-04-22T06:52:51.674Z,1010.24
2023-04-22T06:53:51.906Z,1010.21
2023-04-22T06:54:52.111Z,1010.30
2023-04-22T06:55:52.330Z,1010.25
2023-04-22T06:56:52.599Z,1010.26
2023-04-22T06:57:52.823Z,1010.27
2023-04-22T06:58:53.177Z,1010.24
2023-04-22T06:59:53.423Z,1010.29
2023-04-22T07:00:53.649Z,1010.29
2023-04-22T07:01:53.942Z,1010.30
2023-04-22T07:02:54.222Z,1010.31
2023-04-22T07:03:54.508Z,1010.26
2023-04-22T07:04:54.734Z,1010.30
2023-04-22T07:05:54.962Z,1010.25
2023-04-22T07:06:55.306Z,1010.25
2023-04-22T07:07:55.532Z,1010.22
2023-04-22T07:08:55.893Z,1010.25
2023-04-22T07:09:56.137Z,1010.20
2023-04-22T07:10:56.352Z,1010.22
2023-04-22T07:11:56.598Z,1010.20
2023-04-22T07:12:56.827Z,1010.19
2023-04-22T07:13:57.062Z,1010.18
2023-04-22T07:14:57.314Z,1010.20
2023-04-22T07:15:57.517Z,1010.11
2023-04-22T07:16:57.750Z,1010.20
2023-04-22T07:17:58.037Z,1010.10
2023-04-22T07:18:58.352Z,1010.08
2023-04-22T07:19:58.545Z,1010.10
2023-04-22T07:20:58.761Z,1010.07
2023-04-22T07:21:59.115Z,1010.08
2023-04-22T07:22:59.342Z,1010.06
2023-04-22T07:23:59.560Z,1010.03
2023-04-22T07:24:59.907Z,1010.04
2023-04-22T07:26:00.126Z,1010.06
2023-04-22T07:27:00.394Z,1010.04
2023-04-22T07:28:00.620Z,1010.04
2023-04-22T07:29:00.979Z,1010.01
2023-04-22T07:30:01.208Z,1009.95
2023-04-22T07:31:01.595Z,1010.02
2023-04-22T07:32:01.892Z,1010.03
2023-04-22T07:33:02.100Z,1010.06
2023-04-22T07:34:02.306Z,1010.05
2023-04-22T07:35:02.527Z,1010.05
2023-04-22T07:36:02.889Z,1010.05
2023-04-22T07:37:03.163Z,1010.10
2023-04-22T07:38:03.426Z,1010.09
2023-04-22T07:39:03.637Z,1010.07
2023-04-22T07:40:03.999Z,1010.07
2023-04-22T07:41:04.255Z,1010.05
2023-04-22T07:42:04.476Z,1010.07
2023-04-22T07:43:04.743Z,1010.06
2023-04-22T07:44:04.954Z,1010.01
2023-04-22T07:45:05.209Z,1010.02
2023-04-22T07:46:05.469Z,1010.01
2023-04-22T07:47:05.706Z,1010.05
2023-04-22T07:48:06.011Z,1009.98
2023-04-22T07:49:06.226Z,1009.98
2023-04-22T07:50:06.459Z,1010.02
2023-04-22T07:51:06.680Z,1010.05
2023-04-22T07:52:06.954Z,1010.02
2023-04-22T07:53:07.147Z,1009.97
2023-04-22T07:54:07.494Z,1009.99
2023-04-22T07:55:07.722Z,1009.97
2023-04-22T07:56:07.952Z,1009.96
2023-04-22T07:57:08.217Z,1009.97
2023-04-22T07:58:08.463Z,1009.92
2023-04-22T07:59:08.685Z,1009.90
2023-04-22T08:00:08.914Z,1009.96
2023-04-22T08:01:09.185Z,1009.90
2023-04-22T08:02:09.523Z,1009.98
2023-04-22T08:03:10.029Z,1009.99
2023-04-22T08:04:10.316Z,1010.00
2023-04-22T08:05:10.427Z,1010.00
2023-04-22T08:06:10.612Z,1010.01
2023-04-22T08:08:11.208Z,1009.92
2023-04-22T08:09:11.417Z,1009.96
2023-04-22T08:10:11.798Z,1009.87
2023-04-22T08:11:12.072Z,1009.92
2023-04-22T08:12:12.320Z,1009.91
2023-04-22T08:13:13.373Z,1009.90
2023-04-22T08:14:12.774Z,1009.89
2023-04-22T08:15:13.037Z,1009.98
2023-04-22T08:16:13.286Z,1009.95
2023-04-22T08:17:13.521Z,1009.91
2023-04-22T08:18:13.761Z,1009.96
2023-04-22T08:19:14.027Z,1009.95
2023-04-22T08:20:14.273Z,1009.97
2023-04-22T08:21:14.508Z,1009.89
2023-04-22T08:22:14.718Z,1009.91
2023-04-22T08:23:14.962Z,1009.93
2023-04-22T08:24:15.204Z,1009.87
2023-04-22T08:25:15.428Z,1009.92
2023-04-22T08:26:15.790Z,1009.90
2023-04-22T08:27:16.025Z,1009.77
2023-04-22T08:28:16.270Z,1009.79
2023-04-22T08:29:16.494Z,1009.73
2023-04-22T08:30:16.725Z,1009.77
2023-04-22T08:31:17.000Z,1009.73
2023-04-22T08:32:17.237Z,1009.72
2023-04-22T08:33:17.510Z,1009.67
2023-04-22T08:34:17.723Z,1009.75
2023-04-22T08:35:17.962Z,1009.67
2023-04-22T08:36:18.218Z,1009.74
2023-04-22T08:37:18.464Z,1009.70
2023-04-22T08:38:18.698Z,1009.63
2023-04-22T08:39:18.945Z,1009.68
2023-04-22T08:40:19.172Z,1009.67
2023-04-22T08:41:19.543Z,1009.70
2023-04-22T08:42:19.772Z,1009.65
2023-04-22T08:43:20.004Z,1009.71
2023-04-22T08:44:20.254Z,1009.69
2023-04-22T08:45:20.496Z,1009.64
2023-04-22T08:46:20.798Z,1009.65
2023-04-22T08:47:21.134Z,1009.63
2023-04-22T08:48:21.272Z,1009.63
2023-04-22T08:49:21.515Z,1009.63
2023-04-22T08:50:21.822Z,1009.56
2023-04-22T08:51:22.092Z,1009.61
2023-04-22T08:52:22.324Z,1009.63
2023-04-22T08:53:24.628Z,1009.60
2023-04-22T08:54:22.901Z,1009.60
2023-04-22T08:55:23.154Z,1009.51
2023-04-22T08:56:23.392Z,1009.52
2023-04-22T08:57:23.628Z,1009.58
2023-04-22T08:58:23.884Z,1009.51
2023-04-22T08:59:24.092Z,1009.53
2023-04-22T09:00:24.325Z,1009.53
2023-04-22T09:01:24.583Z,1009.48
2023-04-22T09:02:24.873Z,1009.53
2023-04-22T09:03:25.128Z,1009.50
2023-04-22T09:04:25.477Z,1009.48
2023-04-22T09:05:27.675Z,1009.54
2023-04-22T09:06:26.032Z,1009.52
2023-04-22T09:07:26.258Z,1009.49
2023-04-22T09:08:26.476Z,1009.50
2023-04-22T09:09:26.718Z,1009.48
2023-04-22T09:10:26.942Z,1009.51
2023-04-22T09:11:27.214Z,1009.49
2023-04-22T09:12:27.440Z,1009.51
2023-04-22T09:13:27.794Z,1009.51
2023-04-22T09:14:27.980Z,1009.47
2023-04-22T09:15:28.243Z,1009.43
2023-04-22T09:16:28.523Z,1009.46
2023-04-22T09:17:28.717Z,1009.40
2023-04-22T09:18:28.954Z,1009.45
2023-04-22T09:19:29.198Z,1009.40
2023-04-22T09:20:29.421Z,1009.43
2023-04-22T09:21:29.649Z,1009.40
2023-04-22T09:22:29.908Z,1009.36
2023-04-22T09:23:30.156Z,1009.36
2023-04-22T09:24:30.382Z,1009.36
2023-04-22T09:25:30.620Z,1009.42
2023-04-22T09:26:30.885Z,1009.38
2023-04-22T09:27:31.158Z,1009.38
2023-04-22T09:28:31.436Z,1009.39
2023-04-22T09:29:31.706Z,1009.40
2023-04-22T09:30:31.938Z,1009.39
2023-04-22T09:31:32.203Z,1009.35
2023-04-22T09:32:32.436Z,1009.31
2023-04-22T09:33:32.633Z,1009.28
2023-04-22T09:34:32.894Z,1009.31
2023-04-22T09:35:33.122Z,1009.25
2023-04-22T09:36:33.356Z,1009.27
2023-04-22T09:37:46.668Z,1009.28
2023-04-22T09:38:34.922Z,1009.29
2023-04-22T09:39:34.207Z,1009.28
2023-04-22T09:40:34.448Z,1009.22
2023-04-22T09:41:34.708Z,1009.28
2023-04-22T09:42:34.958Z,1009.20
2023-04-22T09:43:35.212Z,1009.19
2023-04-22T09:44:35.450Z,1009.26
2023-04-22T09:45:35.725Z,1009.22
2023-04-22T09:46:35.932Z,1009.24
2023-04-22T09:47:36.176Z,1009.18
2023-04-22T09:48:36.395Z,1009.15
2023-04-22T09:49:36.761Z,1009.11
2023-04-22T09:50:36.903Z,1009.13
2023-04-22T09:51:37.131Z,1009.15
2023-04-22T09:52:37.380Z,1009.12
2023-04-22T09:53:37.599Z,1009.12
2023-04-22T09:54:37.829Z,1009.14
2023-04-22T09:55:38.081Z,1009.08
2023-04-22T09:56:38.329Z,1009.14
2023-04-22T09:57:38.572Z,1009.05
2023-04-22T09:58:38.807Z,1009.04
2023-04-22T09:59:39.266Z,1009.07
2023-04-22T10:00:39.426Z,1009.00
2023-04-22T10:01:39.781Z,1008.97
2023-04-22T10:02:39.939Z,1009.01
2023-04-22T10:03:40.225Z,1008.91
2023-04-22T10:04:40.439Z,1009.02
2023-04-22T10:05:40.699Z,1009.05
2023-04-22T10:06:40.958Z,1009.01
2023-04-22T10:07:41.238Z,1008.99
2023-04-22T10:08:41.438Z,1008.99
2023-04-22T10:09:41.932Z,1008.98
2023-04-22T10:10:42.002Z,1008.95
2023-04-22T10:11:42.221Z,1008.92
2023-04-22T10:12:42.456Z,1008.82
2023-04-22T10:13:43.158Z,1008.87
2023-04-22T10:14:42.950Z,1008.83
2023-04-22T10:15:43.181Z,1008.87
2023-04-22T10:16:43.433Z,1008.85
2023-04-22T10:17:43.696Z,1008.83
2023-04-22T10:18:43.951Z,1008.77
2023-04-22T10:19:44.162Z,1008.82
2023-04-22T10:20:44.425Z,1008.74
2023-04-22T10:21:44.709Z,1008.76
2023-04-22T10:22:44.935Z,1008.77
2023-04-22T10:23:45.166Z,1008.74
2023-04-22T10:24:45.422Z,1008.70
2023-04-22T10:25:45.681Z,1008.74
2023-04-22T10:26:45.895Z,1008.66
2023-04-22T10:27:46.253Z,1008.69
2023-04-22T10:28:46.508Z,1008.68
2023-04-22T10:29:46.769Z,1008.68
2023-04-22T10:30:47.070Z,1008.67
2023-04-22T10:31:47.310Z,1008.64
2023-04-22T10:32:47.600Z,1008.64
2023-04-22T10:33:48.063Z,1008.64
2023-04-22T10:34:48.137Z,1008.63
2023-04-22T10:35:48.361Z,1008.61
2023-04-22T10:36:48.701Z,1008.50
2023-04-22T10:37:49.052Z,1008.54
2023-04-22T10:38:49.337Z,1008.53
2023-04-22T10:39:49.582Z,1008.45
2023-04-22T10:40:49.834Z,1008.50
2023-04-22T10:41:50.048Z,1008.49
2023-04-22T10:42:50.398Z,1008.48
2023-04-22T10:43:50.660Z,1008.44
2023-04-22T10:44:52.378Z,1008.43
2023-04-22T10:45:51.232Z,1008.47
2023-04-22T10:46:51.468Z,1008.47
2023-04-22T10:47:51.719Z,1008.54
2023-04-22T10:48:51.937Z,1008.52
2023-04-22T10:49:52.199Z,1008.48
2023-04-22T10:50:53.684Z,1008.50
2023-04-22T10:51:52.723Z,1008.46
2023-04-22T10:52:52.973Z,1008.44
2023-04-22T10:53:53.205Z,1008.38
2023-04-22T10:54:53.464Z,1008.43
2023-04-22T10:55:53.928Z,1008.38
2023-04-22T10:56:58.019Z,1008.35
2023-04-22T10:57:54.268Z,1008.43
2023-04-22T10:58:55.320Z,1008.40
2023-04-22T10:59:54.757Z,1008.35
2023-04-22T11:00:55.021Z,1008.37
2023-04-22T11:01:55.349Z,1008.35
2023-04-22T11:02:55.783Z,1008.31
2023-04-22T11:03:55.904Z,1008.32
2023-04-22T11:04:56.134Z,1008.32
2023-04-22T11:05:56.353Z,1008.30
2023-04-22T11:06:56.691Z,1008.27
2023-04-22T11:07:56.929Z,1008.25
2023-04-22T11:08:57.145Z,1008.19
2023-04-22T11:09:57.395Z,1008.11
2023-04-22T11:10:57.631Z,1008.16
2023-04-22T11:11:58.737Z,1008.17
2023-04-22T11:12:58.271Z,1008.11
2023-04-22T11:13:58.505Z,1008.17
2023-04-22T11:14:58.760Z,1008.09
2023-04-22T11:15:59.821Z,1008.12
2023-04-22T11:17:00.779Z,1008.10
2023-04-22T11:17:59.586Z,1008.13
2023-04-22T11:18:59.809Z,1008.17
2023-04-22T11:20:00.049Z,1008.11
2023-04-22T11:21:00.389Z,1008.15
2023-04-22T11:22:00.730Z,1008.08
2023-04-22T11:23:01.721Z,1008.11
2023-04-22T11:24:01.288Z,1008.09
2023-04-22T11:25:01.566Z,1008.13
2023-04-22T11:26:01.760Z,1008.08
2023-04-22T11:27:02.114Z,1008.12
2023-04-22T11:28:02.332Z,1008.06
2023-04-22T11:29:02.629Z,1007.99
2023-04-22T11:30:02.861Z,1008.05
2023-04-22T11:31:03.143Z,1008.01
2023-04-22T11:32:03.398Z,1007.94
2023-04-22T11:33:03.751Z,1007.98
2023-04-22T11:34:03.965Z,1007.95
2023-04-22T11:35:04.250Z,1008.00
2023-04-22T11:36:04.484Z,1007.96
2023-04-22T11:37:04.848Z,1007.99
2023-04-22T11:38:05.079Z,1007.92
2023-04-22T11:39:05.307Z,1008.01
2023-04-22T11:40:17.297Z,1007.93
2023-04-22T11:41:06.876Z,1008.01
2023-04-22T11:42:06.162Z,1007.97
2023-04-22T11:43:06.402Z,1007.96
2023-04-22T11:44:06.621Z,1007.94
2023-04-22T11:45:06.871Z,1007.96
2023-04-22T11:46:07.166Z,1007.89
2023-04-22T11:47:07.346Z,1007.86
2023-04-22T11:48:07.714Z,1007.88
2023-04-22T11:49:07.945Z,1007.89
2023-04-22T11:50:08.186Z,1007.88
2023-04-22T11:51:08.424Z,1007.91
2023-04-22T11:52:08.658Z,1007.88
2023-04-22T11:53:08.985Z,1007.88
2023-04-22T11:54:09.243Z,1007.86
2023-04-22T11:55:09.513Z,1007.97
2023-04-22T11:56:09.792Z,1007.91
2023-04-22T11:57:09.984Z,1007.89
2023-04-22T11:58:10.322Z,1007.90
2023-04-22T11:59:10.711Z,1007.89
2023-04-22T12:00:10.908Z,1007.85
2023-04-22T12:01:11.186Z,1007.91
2023-04-22T12:02:11.526Z,1007.87
2023-04-22T12:03:14.197Z,1007.92
2023-04-22T12:04:12.426Z,1007.95
2023-04-22T12:05:12.460Z,1007.92
2023-04-22T12:06:12.681Z,1007.96
2023-04-22T12:07:12.905Z,1007.89
2023-04-22T12:08:13.140Z,1007.90
2023-04-22T12:09:14.044Z,1007.90
2023-04-22T12:10:13.677Z,1007.92